• Join FlightAware (Why Join?)
  • Login
  • US Flag 
03:22PM EDT


 

Airport Tracker/Info


-or-


 

Live Flight TrackerFlight Track Log ✈ N224RW ✈ 12-Aug-2013 ✈ KLUK - KPWK

Flight Track Log - Related Links

Times and Time Zones

All times are in EDT time to prevent confusion due to time zone crossing. See the N224RW flight status page for this flight to view local times or setup timezone preferences in your user account.

Time Position Orientation Groundspeed Altitude Reporting Facility
EDT Latitude Longitude Course Direction KTS MPH feet Rate Location/Type
04:45PM 39.0833 -84.4167 218° Southwest 85 98 1,200  Level Cincinnati TRACON
04:46PM 39.0667 -84.4333 218° Southwest 106 122 2,200 720 Climbing Cincinnati TRACON
04:47PM 39.0444 -84.4403 194° South 93 107 2,400 180 Climbing Indianapolis Center
04:48PM 39.0222 -84.4067 130° Southeast 124 143 2,500 360 Climbing Indianapolis Center
04:49PM 39.0508 -84.3561 54° Northeast 157 181 3,200 660 Climbing Indianapolis Center
04:50PM 39.0836 -84.3119 46° Northeast 158 182 3,900 180 Climbing Indianapolis Center
04:52PM 39.1500 -84.4500 302° West 165 190 3,900  Level Cincinnati TRACON
04:53PM 39.1833 -84.5000 311° West 168 193 3,900  Level Cincinnati TRACON
04:54PM 39.2167 -84.5333 322° Northwest 167 192 3,900  Level Cincinnati TRACON
04:55PM 39.2500 -84.5833 311° West 167 192 3,900  Level Cincinnati TRACON
04:56PM 39.2667 -84.6333 293° West 164 189 3,900  Level Cincinnati TRACON
04:57PM 39.3000 -84.6667 322° Northwest 165 190 3,900  Level Cincinnati TRACON
04:58PM 39.3333 -84.7167 311° West 167 192 3,900  Level Cincinnati TRACON
04:59PM 39.3611 -84.7594 310° West 155 178 3,900  Level Indianapolis Center
05:00PM 39.3881 -84.8061 307° West 161 185 3,900  Level Indianapolis Center
05:01PM 39.4269 -84.8597 313° West 167 192 3,900  Level Indianapolis Center
05:02PM 39.4572 -84.9072 310° West 169 194 3,900  Level Indianapolis Center
05:03PM 39.4872 -84.9522 311° West 168 193 3,900  Level Indianapolis Center
05:04PM 39.5175 -84.9958 312° West 166 191 3,900  Level Indianapolis Center
05:05PM 39.5469 -85.0414 310° West 164 189 3,900  Level Indianapolis Center
05:06PM 39.5742 -85.0864 308° West 162 186 3,900  Level Indianapolis Center
05:07PM 39.6114 -85.1408 312° West 165 190 3,900  Level Indianapolis Center
05:08PM 39.6414 -85.1850 311° West 165 190 3,900  Level Indianapolis Center
05:09PM 39.6697 -85.2294 310° West 164 189 3,900  Level Indianapolis Center
05:10PM 39.6986 -85.2747 310° West 163 188 3,900  Level Indianapolis Center
05:11PM 39.7286 -85.3197 311° West 164 189 4,000  Climbing Indianapolis Center
05:13PM 39.7578 -85.3650 310° West 165 190 4,000  Level Indianapolis Center
05:14PM 39.7922 -85.4183 310° West 163 188 4,000  Level Indianapolis Center
05:15PM 39.8203 -85.4617 310° West 160 184 4,000  Level Indianapolis Center
05:16PM 39.8486 -85.5072 309° West 161 185 4,000  Level Indianapolis Center
05:17PM 39.8769 -85.5508 310° West 160 184 4,000  Level Indianapolis Center
05:18PM 39.9056 -85.5944 311° West 159 183 4,000  Level Indianapolis Center
05:19PM 39.9331 -85.6378 310° West 158 182 4,000  Level Indianapolis Center
05:20PM 39.9608 -85.6811 310° West 157 181 4,000  Level Indianapolis Center
05:21PM 39.9947 -85.7344 310° West 158 182 4,000  Level Indianapolis Center
05:22PM 40.0231 -85.7781 310° West 159 183 4,000  Level Indianapolis Center
05:23PM 40.0514 -85.8231 309° West 160 184 4,000  Level Indianapolis Center
05:24PM 40.0806 -85.8672 311° West 160 184 4,000  Level Indianapolis Center
05:25PM 40.1092 -85.9139 309° West 163 188 4,000  Level Indianapolis Center
05:26PM 40.1392 -85.9600 310° West 165 190 4,000  Level Indianapolis Center
05:26PM 40.1578 -85.9869 312° West 166 191 4,000  Level Chicago Center
05:27PM 40.1797 -86.0228 309° West 167 192 4,000  Level Chicago Center
05:28PM 40.2097 -86.0706 309° West 165 190 4,000  Level Chicago Center
05:29PM 40.2375 -86.1158 309° West 163 188 4,000  Level Chicago Center
05:30PM 40.2672 -86.1608 311° West 158 182 4,000  Level Chicago Center
05:31PM 40.2950 -86.2061 309° West 160 184 4,000  Level Chicago Center
05:32PM 40.3247 -86.2514 311° West 160 184 4,000  Level Chicago Center
05:33PM 40.3506 -86.2964 307° West 159 183 4,000  Level Chicago Center
05:34PM 40.3803 -86.3417 311° West 161 185 4,000  Level Chicago Center
05:35PM 40.3944 -86.3606 315° West 160 184 4,000  Level Chicago Center
05:35PM 40.4081 -86.3869 304° West 160 184 4,000  Level Chicago Center
05:36PM 40.4253 -86.4100 314° West 160 184 4,000  Level Chicago Center
05:37PM 40.4528 -86.4553 309° West 159 183 4,000  Level Chicago Center
05:38PM 40.4800 -86.5008 308° West 159 183 4,000  Level Chicago Center
05:39PM 40.5089 -86.5456 310° West 160 184 4,000  Level Chicago Center
05:40PM 40.5522 -86.6144 310° West 160 184 4,000  Level Chicago Center
05:41PM 40.5711 -86.6436 310° West 160 184 4,000  Level Chicago Center
05:42PM 40.5986 -86.6886 309° West 159 183 4,000  Level Chicago Center
05:43PM 40.6256 -86.7344 308° West 159 183 4,000  Level Chicago Center
05:44PM 40.6542 -86.7792 310° West 159 183 4,000  Level Chicago Center
05:45PM 40.6861 -86.8297 310° West 159 183 4,000  Level Chicago Center
05:46PM 40.7167 -86.8756 311° West 151 174 4,000  Level Chicago Center
05:47PM 40.7439 -86.9206 309° West 158 182 4,000  Level Chicago Center
05:48PM 40.7714 -86.9658 309° West 159 183 4,000  Level Chicago Center
05:49PM 40.7997 -87.0125 309° West 161 185 4,000  Level Chicago Center
05:50PM 40.8283 -87.0572 310° West 161 185 4,000  Level Chicago Center
05:51PM 40.8606 -87.1114 308° West 159 183 4,000  Level Chicago Center
05:52PM 40.8872 -87.1567 308° West 158 182 4,000  Level Chicago Center
05:53PM 40.9153 -87.2003 310° West 157 181 4,000  Level Chicago Center
05:54PM 40.9356 -87.2497 299° West 155 178 4,000  Level Chicago Center
05:55PM 40.9486 -87.3044 288° West 155 178 4,000  Level Chicago Center
05:56PM 40.9578 -87.3722 280° West 155 178 4,000  Level Chicago Center
05:57PM 40.9667 -87.4286 282° West 156 180 4,000  Level Chicago Center
05:58PM 40.9744 -87.4844 280° West 156 180 4,000  Level Chicago Center
05:59PM 40.9825 -87.5392 281° West 154 177 4,000  Level Chicago Center
06:01PM 40.9908 -87.5947 281° West 154 177 4,000  Level Chicago Center
06:02PM 40.9972 -87.6503 279° West 154 177 4,000  Level Chicago Center
06:03PM 41.0039 -87.7161 278° West 153 176 4,000  Level Chicago Center
06:04PM 41.0103 -87.7731 278° West 154 177 4,000  Level Chicago Center
06:05PM 41.0161 -87.8289 278° West 154 177 4,000  Level Chicago Center
06:06PM 41.0225 -87.8844 279° West 154 177 4,000  Level Chicago Center
06:07PM 41.0400 -87.9339 295° West 153 176 4,000  Level Chicago Center
06:08PM 41.0858 -87.9669 331° Northwest 156 180 4,000  Level Chicago Center
06:09PM 41.1242 -87.9953 331° Northwest 157 181 4,000  Level Chicago Center
06:10PM 41.1614 -88.0242 330° Northwest 157 181 4,000  Level Chicago Center
06:11PM 41.1994 -88.0528 331° Northwest 157 181 4,000  Level Chicago Center
06:12PM 41.2378 -88.0811 331° Northwest 157 181 4,000  Level Chicago Center
06:13PM 41.2761 -88.1100 330° Northwest 158 182 4,000  Level Chicago Center
06:14PM 41.3211 -88.1442 330° Northwest 155 178 4,000  Level Chicago Center
06:15PM 41.3586 -88.1731 330° Northwest 155 178 4,000  Level Chicago Center
06:16PM 41.3961 -88.2008 331° Northwest 154 177 4,000  Level Chicago Center
06:17PM 41.4311 -88.2281 330° Northwest 153 176 4,000  Level Chicago Center
06:18PM 41.4731 -88.2531 336° Northwest 157 181 4,000  Level Chicago Center
06:19PM 41.5128 -88.2750 338° Northwest 155 178 4,000  Level Chicago Center
06:20PM 41.5528 -88.2983 336° Northwest 157 181 4,000  Level Chicago Center
06:21PM 41.6006 -88.3267 336° Northwest 157 181 4,000  Level Chicago Center
06:22PM 41.6400 -88.3508 335° Northwest 157 181 4,000  Level Chicago Center
06:23PM 41.6794 -88.3744 336° Northwest 156 180 4,000  Level Chicago Center
06:24PM 41.7192 -88.3992 335° Northwest 157 181 4,000  Level Chicago Center
06:25PM 41.7600 -88.4250 335° Northwest 160 184 4,000  Level Chicago Center
06:26PM 41.8028 -88.4439 342° North 161 185 4,000  Level Chicago Center
06:27PM 41.8553 -88.4603 347° North 162 186 4,000  Level Chicago Center
06:28PM 41.8989 -88.4739 347° North 162 186 4,000  Level Chicago Center
06:29PM 41.9419 -88.4872 347° North 161 185 4,000  Level Chicago Center
06:30PM 41.9869 -88.4931 354° North 161 185 4,000  Level Chicago Center
06:31PM 42.0322 -88.4903 North 161 185 4,000  Level Chicago Center
06:33PM 42.0761 -88.4869 North 160 184 4,000  Level Chicago Center
06:34PM 42.1158 -88.4425 40° Northeast 167 192 4,000  Level Chicago Center
06:35PM 42.1417 -88.3894 57° Northeast 169 194 4,000  Level Chicago Center
06:36PM 42.1669 -88.3342 58° Northeast 172 198 4,000  Level Chicago Center
06:37PM 42.1917 -88.2822 57° Northeast 169 194 4,000  Level Chicago Center
06:38PM 42.2164 -88.2289 58° Northeast 168 193 4,000 -300 Level Chicago Center
06:39PM 42.2408 -88.1561 66° East 174 200 3,400 -540 Descending Chicago Center
06:40PM 42.2550 -88.1036 70° East 174 200 3,000 -360 Descending Chicago Center
06:42PM 42.2833 -88.0000 70° East 138 159 2,400 -180 Descending Chicago TRACON
06:43PM 42.2500 -87.9833 160° South 130 150 2,500 60 Climbing Chicago TRACON
06:43PM 42.2444 -87.9725 125° Southeast 126 145 2,500 -240 Level Chicago Center
06:44PM 42.2019 -87.9503 159° South 135 155 2,200 -420 Descending Chicago Center
06:45PM 42.1739 -87.9336 156° South 125 144 1,700 -540 Descending Chicago Center